Time;durP1;ratioP1;P1;durP2;ratioP2;P2;SDS_P1;SDS_P2;PMS_P1;PMS_P2;Temp;Humidity;BMP_temperature;BMP_pressure;BME280_temperature;BME280_humidity;BME280_pressure;Samples;Min_cycle;Max_cycle;Signal;HPM_P1;HPM_P2
2023/12/27 00:00:40;;;;;;;0.40;0.40;;;;;;;2.67;100.00;101976.13;5112547;28;20020;-59
2023/12/27 00:03:05;;;;;;;0.40;0.40;;;;;;;2.73;100.00;101963.88;5112259;28;20015;-59
2023/12/27 00:05:31;;;;;;;0.40;0.40;;;;;;;2.60;100.00;101967.97;5112672;28;20039;-59
2023/12/27 00:07:56;;;;;;;0.40;0.40;;;;;;;2.59;100.00;101970.41;5112812;28;20471;-59
2023/12/27 00:10:21;;;;;;;0.40;0.40;;;;;;;2.63;100.00;101955.53;5111906;28;20110;-59
2023/12/27 00:12:47;;;;;;;0.40;0.40;;;;;;;2.55;100.00;101960.75;5112879;28;20103;-59
2023/12/27 00:15:12;;;;;;;0.40;0.40;;;;;;;2.61;100.00;101953.63;5112373;28;20035;-59
2023/12/27 00:17:37;;;;;;;0.40;0.40;;;;;;;2.51;100.00;101949.44;5111959;28;20028;-59
2023/12/27 00:20:03;;;;;;;0.40;0.40;;;;;;;2.49;100.00;101958.59;5112605;28;20027;-58
2023/12/27 00:22:28;;;;;;;0.40;0.40;;;;;;;2.55;100.00;101959.09;5111979;28;20027;-59
2023/12/27 00:24:54;;;;;;;0.40;0.40;;;;;;;2.62;100.00;101951.19;5111707;28;20106;-59
2023/12/27 00:27:19;;;;;;;0.40;0.40;;;;;;;2.59;100.00;101956.00;5112296;28;20391;-59
2023/12/27 00:29:45;;;;;;;0.40;0.40;;;;;;;2.63;100.00;101955.53;5111759;28;20487;-58
2023/12/27 00:32:11;;;;;;;0.40;0.40;;;;;;;2.64;100.00;101958.94;5112208;28;20027;-59
2023/12/27 00:34:37;;;;;;;0.50;0.50;;;;;;;2.56;100.00;101965.97;5112027;28;20466;-59
2023/12/27 00:37:03;;;;;;;0.40;0.40;;;;;;;2.59;100.00;101962.78;5114927;28;20151;-59
2023/12/27 00:39:28;;;;;;;0.40;0.40;;;;;;;2.67;100.00;101954.09;5116308;28;20024;-59
2023/12/27 00:41:54;;;;;;;0.40;0.40;;;;;;;2.64;100.00;101954.72;5116440;28;20024;-59
2023/12/27 00:44:19;;;;;;;0.43;0.43;;;;;;;2.61;100.00;101951.94;5115235;28;20026;-59
2023/12/27 00:46:44;;;;;;;0.40;0.40;;;;;;;2.59;100.00;101942.41;5116382;28;20050;-59
2023/12/27 00:49:10;;;;;;;0.40;0.40;;;;;;;2.58;100.00;101949.19;5115681;28;20401;-58
2023/12/27 00:51:35;;;;;;;0.40;0.40;;;;;;;2.62;100.00;101951.19;5115312;28;20030;-59
2023/12/27 00:54:00;;;;;;;0.40;0.40;;;;;;;2.64;100.00;101942.00;5116116;28;20024;-59
2023/12/27 00:56:26;;;;;;;0.40;0.40;;;;;;;2.64;100.00;101939.47;5115705;28;20032;-59
2023/12/27 00:58:51;;;;;;;0.40;0.40;;;;;;;2.60;100.00;101944.19;5115245;28;20023;-59
2023/12/27 01:01:17;;;;;;;0.40;0.40;;;;;;;2.61;100.00;101949.41;5115535;28;20030;-59
2023/12/27 01:03:42;;;;;;;0.40;0.40;;;;;;;2.64;100.00;101949.63;5115954;28;20023;-59
2023/12/27 01:06:08;;;;;;;0.40;0.40;;;;;;;2.68;100.00;101953.31;5115482;28;20355;-59
2023/12/27 01:08:34;;;;;;;0.40;0.40;;;;;;;2.58;100.00;101951.72;5115494;28;20020;-59
2023/12/27 01:10:59;;;;;;;0.47;0.47;;;;;;;2.65;100.00;101948.00;5115590;28;20065;-59
2023/12/27 01:13:24;;;;;;;0.50;0.50;;;;;;;2.62;100.00;101943.56;5114910;28;20088;-59
2023/12/27 01:15:50;;;;;;;0.40;0.40;;;;;;;2.58;100.00;101946.63;5115822;28;20051;-59
2023/12/27 01:18:15;;;;;;;0.40;0.40;;;;;;;2.55;100.00;101938.72;5115397;28;20110;-59
2023/12/27 01:20:40;;;;;;;0.40;0.40;;;;;;;2.55;100.00;101941.28;5115447;28;20023;-59
2023/12/27 01:23:05;;;;;;;0.40;0.40;;;;;;;2.56;100.00;101927.78;5115865;28;20081;-59
2023/12/27 01:25:31;;;;;;;0.40;0.40;;;;;;;2.54;100.00;101926.75;5115147;28;20490;-59
2023/12/27 01:27:56;;;;;;;0.40;0.40;;;;;;;2.54;100.00;101926.75;5115204;28;20028;-59
2023/12/27 01:30:21;;;;;;;0.43;0.43;;;;;;;2.50;100.00;101914.56;5115358;28;20103;-59
2023/12/27 01:32:47;;;;;;;0.43;0.43;;;;;;;2.49;100.00;101920.41;5115398;28;20394;-59
2023/12/27 01:35:12;;;;;;;0.40;0.40;;;;;;;2.32;100.00;101918.22;5114699;28;20019;-59
2023/12/27 01:37:38;;;;;;;0.40;0.40;;;;;;;2.43;100.00;101927.59;5115185;28;20027;-59
2023/12/27 01:40:04;;;;;;;0.40;0.40;;;;;;;2.41;100.00;101932.53;5114486;28;20065;-59
2023/12/27 01:42:30;;;;;;;0.40;0.40;;;;;;;2.45;100.00;101926.94;5114863;28;20035;-59
2023/12/27 01:44:56;;;;;;;0.30;0.30;;;;;;;2.40;100.00;101937.50;5115104;28;20375;-59
2023/12/27 01:47:21;;;;;;;0.40;0.40;;;;;;;2.43;100.00;101938.66;5113534;28;20044;-59
2023/12/27 01:49:47;;;;;;;0.47;0.47;;;;;;;2.30;100.00;101940.97;5115121;28;20034;-59
2023/12/27 01:52:13;;;;;;;0.40;0.40;;;;;;;2.28;100.00;101938.28;5114804;28;20031;-60
2023/12/27 01:54:38;;;;;;;0.50;0.50;;;;;;;2.28;100.00;101933.19;5114143;28;20018;-59
2023/12/27 01:57:04;;;;;;;0.40;0.40;;;;;;;2.36;100.00;101936.38;5114887;28;20043;-59
2023/12/27 01:59:30;;;;;;;0.40;0.40;;;;;;;2.37;100.00;101943.25;5114508;28;20050;-59
2023/12/27 02:01:55;;;;;;;0.40;0.40;;;;;;;2.42;100.00;101936.00;5113969;28;20371;-59
2023/12/27 02:04:20;;;;;;;0.50;0.50;;;;;;;2.49;100.00;101940.78;5114609;28;20020;-59
2023/12/27 02:06:47;;;;;;;0.40;0.40;;;;;;;2.47;100.00;101930.47;5114828;28;20024;-59
2023/12/27 02:09:12;;;;;;;0.40;0.40;;;;;;;2.53;100.00;101925.00;5113615;28;20475;-59
2023/12/27 02:11:37;;;;;;;0.50;0.50;;;;;;;2.55;100.00;101933.63;5114403;28;20033;-59
2023/12/27 02:14:06;;;;;;;0.50;0.50;;;;;;;2.57;100.00;101923.56;5114280;28;20112;-59
2023/12/27 02:16:31;;;;;;;0.50;0.50;;;;;;;2.49;100.00;101937.34;5113728;28;20023;-59
2023/12/27 02:19:00;;;;;;;0.40;0.40;;;;;;;2.51;100.00;101920.56;5114576;28;20102;-59
2023/12/27 02:21:26;;;;;;;0.40;0.40;;;;;;;2.47;100.00;101921.97;5113990;28;20024;-59
2023/12/27 02:23:53;;;;;;;0.45;0.45;;;;;;;2.51;100.00;101931.63;5113884;28;20099;-59
2023/12/27 02:26:20;;;;;;;0.40;0.40;;;;;;;2.53;100.00;101925.00;5114013;28;20023;-59
2023/12/27 02:28:45;;;;;;;0.40;0.40;;;;;;;2.63;100.00;101911.34;5114046;28;20016;-59
2023/12/27 02:31:10;;;;;;;0.50;0.50;;;;;;;2.69;100.00;101911.84;5113294;28;20027;-59
2023/12/27 02:33:37;;;;;;;0.40;0.40;;;;;;;2.72;100.00;101911.19;5114258;28;20032;-59
2023/12/27 02:36:03;;;;;;;0.40;0.40;;;;;;;2.74;100.00;101904.56;5113991;28;20027;-59
2023/12/27 02:38:28;;;;;;;0.40;0.40;;;;;;;2.75;100.00;101911.41;5113233;28;20054;-59
2023/12/27 02:40:55;;;;;;;0.40;0.40;;;;;;;2.76;100.00;101905.56;5113980;28;20081;-59
2023/12/27 02:43:20;;;;;;;0.40;0.40;;;;;;;2.75;100.00;101901.22;5112986;28;20085;-59
2023/12/27 02:45:46;;;;;;;0.40;0.40;;;;;;;2.78;100.00;101897.28;5114022;28;20441;-59
2023/12/27 02:48:11;;;;;;;0.40;0.40;;;;;;;2.77;100.00;101905.66;5113544;28;20043;-59
2023/12/27 02:50:36;;;;;;;0.40;0.40;;;;;;;2.84;100.00;101899.44;5113189;28;20539;-59
2023/12/27 02:53:02;;;;;;;0.40;0.40;;;;;;;2.81;100.00;101886.44;5113753;28;20039;-59
2023/12/27 02:55:27;;;;;;;0.40;0.40;;;;;;;2.83;100.00;101884.00;5113538;28;20019;-59
2023/12/27 02:57:53;;;;;;;0.30;0.30;;;;;;;2.79;100.00;101876.13;5112495;28;20027;-59
2023/12/27 03:00:18;;;;;;;0.40;0.40;;;;;;;2.83;100.00;101876.38;5112951;28;20031;-59
2023/12/27 03:02:43;;;;;;;0.40;0.40;;;;;;;2.86;100.00;101871.53;5113974;28;20028;-59
2023/12/27 03:05:09;;;;;;;0.50;0.50;;;;;;;2.87;100.00;101871.66;5112890;28;20375;-59
2023/12/27 03:07:34;;;;;;;0.40;0.40;;;;;;;2.88;100.00;101865.78;5113618;28;20019;-60
2023/12/27 03:09:59;;;;;;;0.40;0.40;;;;;;;2.91;100.00;101866.00;5113333;28;20026;-59
2023/12/27 03:12:25;;;;;;;0.43;0.43;;;;;;;2.92;100.00;101869.47;5112648;28;20024;-60
2023/12/27 03:14:50;;;;;;;0.50;0.50;;;;;;;2.95;100.00;101869.69;5113111;28;20030;-60
2023/12/27 03:17:16;;;;;;;0.40;0.40;;;;;;;3.01;100.00;101861.63;5112750;28;20110;-59
2023/12/27 03:19:41;;;;;;;0.30;0.30;;;;;;;3.06;100.00;101855.22;5112913;28;20066;-60
2023/12/27 03:22:06;;;;;;;0.50;0.50;;;;;;;3.07;100.00;101850.25;5113177;28;20103;-59
2023/12/27 03:24:31;;;;;;;0.30;0.30;;;;;;;3.06;100.00;101847.56;5112803;28;20061;-59
2023/12/27 03:26:57;;;;;;;0.40;0.40;;;;;;;3.08;100.00;101836.72;5112564;28;20024;-60
2023/12/27 03:29:22;;;;;;;0.35;0.35;;;;;;;3.07;100.00;101837.53;5113048;28;20076;-59
2023/12/27 03:31:47;;;;;;;0.32;0.32;;;;;;;3.09;100.00;101825.78;5112948;28;20042;-59
2023/12/27 03:34:13;;;;;;;0.40;0.40;;;;;;;3.10;100.00;101824.13;5112267;28;20532;-59
2023/12/27 03:36:38;;;;;;;0.40;0.40;;;;;;;3.12;100.00;101818.38;5113003;28;20113;-59
2023/12/27 03:39:03;;;;;;;0.40;0.40;;;;;;;3.16;100.00;101813.50;5112985;28;20019;-60
2023/12/27 03:41:28;;;;;;;0.40;0.40;;;;;;;3.12;100.00;101809.84;5112155;28;20031;-59
2023/12/27 03:43:58;;;;;;;0.40;0.40;;;;;;;3.13;100.00;101798.88;5112954;28;20024;-60
2023/12/27 03:46:23;;;;;;;0.40;0.40;;;;;;;3.12;100.00;101802.19;5112673;28;20051;-59
2023/12/27 03:48:49;;;;;;;0.40;0.40;;;;;;;3.11;100.00;101798.78;5112327;28;20074;-59
2023/12/27 03:51:14;;;;;;;0.40;0.40;;;;;;;3.11;100.00;101790.22;5112748;28;20076;-59
2023/12/27 03:53:39;;;;;;;0.40;0.40;;;;;;;3.11;100.00;101787.69;5112384;28;20042;-59
2023/12/27 03:56:10;;;;;;;0.40;0.40;;;;;;;3.11;100.00;101774.94;5112785;28;20035;-59
2023/12/27 03:58:35;;;;;;;0.40;0.40;;;;;;;3.10;100.00;101774.06;5112991;28;20062;-59
2023/12/27 04:01:01;;;;;;;0.40;0.40;;;;;;;3.09;100.00;101771.41;5111790;28;20024;-59
2023/12/27 04:03:26;;;;;;;0.30;0.30;;;;;;;3.09;100.00;101761.22;5112669;28;20042;-59
2023/12/27 04:05:51;;;;;;;0.50;0.50;;;;;;;3.10;100.00;101768.09;5112725;28;20084;-59
2023/12/27 04:08:17;;;;;;;0.43;0.43;;;;;;;3.10;100.00;101763.00;5111752;28;20038;-59
2023/12/27 04:10:42;;;;;;;0.40;0.40;;;;;;;3.12;100.00;101764.91;5114006;28;20054;-59
2023/12/27 04:13:07;;;;;;;0.45;0.45;;;;;;;3.15;100.00;101770.97;5116638;28;20055;-59
2023/12/27 04:15:32;;;;;;;0.40;0.40;;;;;;;3.17;100.00;101762.69;5116150;28;20126;-59
2023/12/27 04:17:58;;;;;;;0.40;0.40;;;;;;;3.19;100.00;101753.50;5116864;28;20024;-59
2023/12/27 04:20:23;;;;;;;0.40;0.40;;;;;;;3.25;100.00;101747.97;5116380;28;20015;-59
2023/12/27 04:22:48;;;;;;;0.40;0.40;;;;;;;3.24;100.00;101744.53;5116224;28;20032;-60
2023/12/27 04:25:13;;;;;;;0.40;0.40;;;;;;;3.28;100.00;101758.41;5116393;28;20023;-60
2023/12/27 04:27:39;;;;;;;0.40;0.40;;;;;;;3.31;100.00;101750.09;5116544;28;20019;-59
2023/12/27 04:30:04;;;;;;;0.40;0.40;;;;;;;3.32;100.00;101744.19;5116258;28;20020;-59
2023/12/27 04:32:31;;;;;;;0.40;0.40;;;;;;;3.34;100.00;101742.66;5116468;28;20028;-59
2023/12/27 04:34:56;;;;;;;0.35;0.35;;;;;;;3.36;100.00;101743.66;5116471;28;20024;-59
2023/12/27 04:37:21;;;;;;;0.40;0.40;;;;;;;3.38;100.00;101742.09;5115559;28;20494;-60
2023/12/27 04:39:47;;;;;;;0.40;0.40;;;;;;;3.40;100.00;101745.66;5116548;28;20028;-60
2023/12/27 04:42:12;;;;;;;0.40;0.40;;;;;;;3.43;100.00;101745.88;5115746;28;20027;-59
2023/12/27 04:44:37;;;;;;;0.47;0.47;;;;;;;3.45;100.00;101749.44;5115970;28;20028;-60
2023/12/27 04:47:03;;;;;;;0.40;0.40;;;;;;;3.46;100.00;101743.56;5116032;28;20051;-60
2023/12/27 04:49:28;;;;;;;0.45;0.45;;;;;;;3.49;100.00;101743.78;5115811;28;20455;-59
2023/12/27 04:51:53;;;;;;;0.30;0.30;;;;;;;3.52;100.00;101743.97;5115749;28;20042;-60
2023/12/27 04:54:18;;;;;;;0.40;0.40;;;;;;;3.54;100.00;101745.00;5115852;28;20164;-59
2023/12/27 04:56:44;;;;;;;0.40;0.40;;;;;;;3.56;100.00;101743.44;5115711;28;20031;-59
2023/12/27 04:59:09;;;;;;;0.40;0.40;;;;;;;3.59;100.00;101741.13;5115466;28;20028;-60
2023/12/27 05:01:34;;;;;;;0.40;0.40;;;;;;;3.62;100.00;101735.34;5116106;28;20028;-59
2023/12/27 05:03:59;;;;;;;0.30;0.30;;;;;;;3.64;100.00;101723.59;5115462;28;20024;-60
2023/12/27 05:06:25;;;;;;;0.40;0.40;;;;;;;3.68;100.00;101719.59;5115743;28;20340;-59
2023/12/27 05:08:50;;;;;;;0.40;0.40;;;;;;;3.70;100.00;101707.88;5115833;28;20024;-59
2023/12/27 05:11:21;;;;;;;0.50;0.50;;;;;;;3.72;100.00;101704.66;5114757;28;20016;-59
2023/12/27 05:13:47;;;;;;;0.40;0.40;;;;;;;3.74;100.00;101704.75;5116194;28;20024;-60
2023/12/27 05:16:16;;;;;;;0.43;0.43;;;;;;;3.75;100.00;101702.31;5115806;28;20020;-60
2023/12/27 05:18:43;;;;;;;0.35;0.35;;;;;;;3.77;100.00;101699.84;5115139;28;20027;-60
2023/12/27 05:21:09;;;;;;;0.40;0.40;;;;;;;3.78;100.00;101696.53;5115378;28;20016;-59
2023/12/27 05:23:35;;;;;;;0.40;0.40;;;;;;;3.80;100.00;101687.34;5115449;28;20051;-59
2023/12/27 05:26:01;;;;;;;0.40;0.40;;;;;;;3.80;100.00;101692.44;5099283;28;20389;-59
2023/12/27 05:28:26;;;;;;;0.40;0.40;;;;;;;3.83;100.00;101692.63;5094991;28;20070;-59
2023/12/27 05:30:52;;;;;;;0.40;0.40;;;;;;;3.84;100.00;101694.41;5094997;28;20024;-60
2023/12/27 05:33:17;;;;;;;0.40;0.40;;;;;;;3.86;100.00;101690.31;5094468;28;20089;-59
2023/12/27 05:35:42;;;;;;;0.30;0.30;;;;;;;3.87;100.00;101686.97;5095109;28;20031;-60
2023/12/27 05:38:08;;;;;;;0.32;0.32;;;;;;;3.90;100.00;101696.50;5094931;28;20024;-60
2023/12/27 05:40:33;;;;;;;0.40;0.40;;;;;;;3.90;100.00;101694.84;5094391;28;20020;-60
2023/12/27 05:42:58;;;;;;;0.40;0.40;;;;;;;3.92;100.00;101689.84;5095300;28;20468;-60
2023/12/27 05:45:24;;;;;;;0.40;0.40;;;;;;;3.91;100.00;101683.88;5094455;28;20060;-59
2023/12/27 05:47:49;;;;;;;0.40;0.40;;;;;;;3.92;100.00;101677.09;5094658;28;20047;-59
2023/12/27 05:50:15;;;;;;;0.32;0.32;;;;;;;3.92;100.00;101670.31;5094676;28;20502;-59
2023/12/27 05:52:40;;;;;;;0.40;0.40;;;;;;;3.92;100.00;101670.31;5094728;28;20096;-59
2023/12/27 05:55:06;;;;;;;0.45;0.45;;;;;;;3.90;100.00;101661.72;5094238;28;20425;-60
2023/12/27 05:57:32;;;;;;;0.40;0.40;;;;;;;3.91;100.00;101657.47;5094343;28;20456;-60
2023/12/27 05:59:57;;;;;;;0.30;0.30;;;;;;;3.92;100.00;101651.59;5094664;28;20020;-60
2023/12/27 06:02:22;;;;;;;0.40;0.40;;;;;;;3.92;100.00;101652.47;5093934;28;20028;-60
2023/12/27 06:04:48;;;;;;;0.40;0.40;;;;;;;3.95;100.00;101650.16;5094698;28;20500;-60
2023/12/27 06:07:13;;;;;;;0.35;0.35;;;;;;;3.95;100.00;101639.97;5093746;28;20032;-59
2023/12/27 06:09:42;;;;;;;0.40;0.40;;;;;;;3.98;100.00;101649.47;5094008;28;20095;-60
2023/12/27 06:12:08;;;;;;;0.40;0.40;;;;;;;3.99;100.00;101641.06;5094534;28;20489;-60
2023/12/27 06:14:34;;;;;;;0.40;0.40;;;;;;;4.02;100.00;101637.84;5093631;28;20070;-60
2023/12/27 06:16:59;;;;;;;0.30;0.30;;;;;;;4.03;100.00;101632.84;5094481;28;20043;-60
2023/12/27 06:19:24;;;;;;;0.40;0.40;;;;;;;4.05;100.00;101630.38;5093966;28;20032;-60
2023/12/27 06:21:49;;;;;;;0.40;0.40;;;;;;;4.05;100.00;101621.03;5093705;28;20020;-60
2023/12/27 06:24:15;;;;;;;0.40;0.40;;;;;;;4.07;100.00;101618.63;5093963;28;20028;-60
2023/12/27 06:26:40;;;;;;;0.40;0.40;;;;;;;4.09;100.00;101623.06;5094213;28;20472;-60
2023/12/27 06:29:06;;;;;;;0.40;0.40;;;;;;;4.11;100.00;101620.59;5093621;28;20055;-60
2023/12/27 06:31:34;;;;;;;0.40;0.40;;;;;;;4.12;100.00;101609.63;5093979;28;20028;-60
2023/12/27 06:33:59;;;;;;;0.40;0.40;;;;;;;4.13;100.00;101603.72;5093037;28;20031;-60
2023/12/27 06:36:25;;;;;;;0.40;0.40;;;;;;;4.16;100.00;101598.84;5093240;28;20106;-60
2023/12/27 06:38:50;;;;;;;0.40;0.40;;;;;;;4.19;100.00;101588.81;5093930;28;20024;-60
2023/12/27 06:41:16;;;;;;;0.40;0.40;;;;;;;4.20;100.00;101585.50;5093558;28;20111;-60
2023/12/27 06:43:43;;;;;;;0.32;0.32;;;;;;;4.22;100.00;101585.59;5093583;28;20043;-60
2023/12/27 06:46:08;;;;;;;0.40;0.40;;;;;;;4.23;100.00;101578.03;5093808;28;20357;-60
2023/12/27 06:48:33;;;;;;;0.40;0.40;;;;;;;4.26;100.00;101572.25;5093215;28;20119;-60
2023/12/27 06:50:59;;;;;;;0.40;0.40;;;;;;;4.28;100.00;101574.13;5093295;28;20034;-60
2023/12/27 06:53:24;;;;;;;0.40;0.40;;;;;;;4.32;100.00;101575.22;5093297;28;20077;-60
2023/12/27 06:55:49;;;;;;;0.40;0.40;;;;;;;4.35;100.00;101570.34;5093487;28;20121;-60
2023/12/27 06:58:14;;;;;;;0.50;0.50;;;;;;;4.37;100.00;101562.78;5092848;28;20114;-60
2023/12/27 07:00:41;;;;;;;0.40;0.40;;;;;;;4.40;100.00;101568.06;5093762;28;20089;-60
2023/12/27 07:03:06;;;;;;;0.40;0.40;;;;;;;4.42;100.00;101566.53;5093391;28;20028;-60
2023/12/27 07:05:32;;;;;;;0.40;0.40;;;;;;;4.43;100.00;101563.19;5092754;28;20115;-60
2023/12/27 07:07:57;;;;;;;0.40;0.40;;;;;;;4.46;100.00;101558.28;5093488;28;20089;-60
2023/12/27 07:10:22;;;;;;;0.40;0.40;;;;;;;4.49;100.00;101555.91;5092915;28;20034;-60
2023/12/27 07:12:48;;;;;;;0.40;0.40;;;;;;;4.52;100.00;101561.25;5093042;28;20027;-60
2023/12/27 07:15:13;;;;;;;0.40;0.40;;;;;;;4.55;100.00;101558.88;5093213;28;20063;-60
2023/12/27 07:17:38;;;;;;;0.40;0.40;;;;;;;4.58;100.00;101551.44;5092648;28;20384;-60
2023/12/27 07:20:04;;;;;;;0.40;0.40;;;;;;;4.62;100.00;101549.94;5093511;28;20532;-60
2023/12/27 07:22:29;;;;;;;0.30;0.30;;;;;;;4.66;100.00;101551.94;5092507;28;20035;-60
2023/12/27 07:24:55;;;;;;;0.32;0.32;;;;;;;4.68;100.00;101546.91;5092407;28;20519;-60
2023/12/27 07:27:20;;;;;;;0.40;0.40;;;;;;;4.71;100.00;101549.66;5093112;28;20053;-60
2023/12/27 07:29:45;;;;;;;0.40;0.40;;;;;;;4.73;100.00;101543.00;5092912;28;20020;-60
2023/12/27 07:32:11;;;;;;;0.40;0.40;;;;;;;4.75;100.00;101547.41;5092392;28;20024;-60
2023/12/27 07:34:36;;;;;;;0.30;0.30;;;;;;;4.76;100.00;101550.84;5092947;28;20031;-60
2023/12/27 07:37:01;;;;;;;0.35;0.35;;;;;;;4.78;100.00;101541.63;5092661;28;20106;-60
2023/12/27 07:39:27;;;;;;;0.30;0.30;;;;;;;4.81;100.00;101546.03;5092409;28;20036;-60
2023/12/27 07:41:52;;;;;;;0.40;0.40;;;;;;;4.85;100.00;101548.88;5093177;28;20028;-60
2023/12/27 07:44:17;;;;;;;0.40;0.40;;;;;;;4.88;100.00;101538.88;5092405;28;20024;-60
2023/12/27 07:46:43;;;;;;;0.40;0.40;;;;;;;4.91;100.00;101556.06;5092577;28;20035;-60
2023/12/27 07:49:09;;;;;;;0.30;0.30;;;;;;;4.94;100.00;101539.28;5092735;28;20044;-60
2023/12/27 07:51:34;;;;;;;0.30;0.30;;;;;;;5.00;100.00;101532.78;5092707;28;20027;-60
2023/12/27 07:54:00;;;;;;;0.30;0.30;;;;;;;5.05;100.00;101541.63;5091973;28;20028;-61
2023/12/27 07:56:25;;;;;;;0.30;0.30;;;;;;;5.11;100.00;101531.75;5092546;28;20387;-60
2023/12/27 07:58:50;;;;;;;0.20;0.20;;;;;;;5.15;100.00;101533.75;5092729;28;20031;-61
2023/12/27 08:01:15;;;;;;;0.40;0.40;;;;;;;5.17;100.00;101532.16;5091696;28;20040;-60
2023/12/27 08:03:41;;;;;;;0.40;0.40;;;;;;;5.20;100.00;101531.47;5092650;28;20490;-61
2023/12/27 08:06:06;;;;;;;0.30;0.30;;;;;;;5.24;100.00;101529.19;5092486;28;20073;-60
2023/12/27 08:08:34;;;;;;;0.38;0.38;;;;;;;5.26;100.00;101537.81;5091890;28;20028;-60
2023/12/27 08:11:06;;;;;;;0.40;0.40;;;;;;;5.30;100.00;101532.94;5092990;28;20020;-60
2023/12/27 08:13:32;;;;;;;0.30;0.30;;;;;;;5.33;100.00;101530.53;5092382;28;20043;-60
2023/12/27 08:15:57;;;;;;;0.32;0.32;;;;;;;5.36;100.00;101520.50;5092276;28;20061;-60
2023/12/27 08:18:23;;;;;;;0.30;0.30;;;;;;;5.39;100.00;101516.47;5108113;28;20071;-60
2023/12/27 08:20:48;;;;;;;0.30;0.30;;;;;;;5.41;100.00;101516.56;5112724;28;20110;-60
2023/12/27 08:23:16;;;;;;;0.40;0.40;;;;;;;5.44;100.00;101507.41;5112368;28;20062;-60
2023/12/27 08:25:41;;;;;;;0.40;0.40;;;;;;;5.50;100.00;101506.91;5113159;28;20478;-60
2023/12/27 08:28:08;;;;;;;0.30;0.30;;;;;;;5.52;100.00;101500.19;5112295;28;20514;-60
2023/12/27 08:30:33;;;;;;;0.40;0.40;;;;;;;5.55;100.00;101492.72;5112496;28;20434;-61
2023/12/27 08:33:00;;;;;;;0.30;0.30;;;;;;;5.57;100.00;101491.13;5112664;28;20058;-61
2023/12/27 08:35:25;;;;;;;0.30;0.30;;;;;;;5.61;100.00;101481.97;5112086;28;20084;-60
2023/12/27 08:37:50;;;;;;;0.30;0.30;;;;;;;5.65;100.00;101470.25;5112951;28;20031;-60
2023/12/27 08:40:17;;;;;;;0.20;0.20;;;;;;;5.71;100.00;101470.63;5112127;28;20063;-60
2023/12/27 08:42:43;;;;;;;0.30;0.30;;;;;;;5.74;100.00;101475.91;5112426;28;20020;-60
2023/12/27 08:45:08;;;;;;;0.30;0.30;;;;;;;5.78;100.00;101467.63;5112996;28;20069;-60
2023/12/27 08:47:34;;;;;;;0.30;0.30;;;;;;;5.82;100.00;101463.59;5112146;28;20047;-60
2023/12/27 08:49:59;;;;;;;0.30;0.30;;;;;;;5.86;100.00;101466.44;5112056;28;20483;-61
2023/12/27 08:52:25;;;;;;;0.30;0.30;;;;;;;5.91;100.00;101467.56;5112573;28;20095;-60
2023/12/27 08:54:52;;;;;;;0.30;0.30;;;;;;;5.98;100.00;101470.47;5112664;28;20070;-60
2023/12/27 08:57:17;;;;;;;0.30;0.30;;;;;;;6.02;100.00;101462.25;5113686;28;20028;-60
2023/12/27 08:59:42;;;;;;;0.30;0.30;;;;;;;6.08;100.00;101452.31;5116460;28;20440;-60
2023/12/27 09:02:08;;;;;;;0.40;0.40;;;;;;;6.11;100.00;101457.66;5116144;28;20160;-60
2023/12/27 09:04:33;;;;;;;0.30;0.30;;;;;;;6.16;100.00;101461.34;5115338;28;20027;-60
2023/12/27 09:06:59;;;;;;;0.40;0.40;;;;;;;6.18;100.00;101449.50;5116416;28;20028;-60
2023/12/27 09:09:24;;;;;;;0.30;0.30;;;;;;;6.24;100.00;101447.28;5115773;28;20030;-60
2023/12/27 09:11:49;;;;;;;0.30;0.30;;;;;;;6.28;100.00;101447.50;5115651;28;20064;-60
2023/12/27 09:14:14;;;;;;;0.30;0.30;;;;;;;6.31;100.00;101439.97;5115827;28;20028;-60
2023/12/27 09:16:40;;;;;;;0.30;0.30;;;;;;;6.34;100.00;101460.63;5115619;28;20028;-61
2023/12/27 09:19:05;;;;;;;0.40;0.40;;;;;;;6.35;100.00;101458.16;5115325;28;20115;-61
2023/12/27 09:21:30;;;;;;;0.30;0.30;;;;;;;6.36;100.00;101449.66;5115571;28;20027;-60
2023/12/27 09:23:57;;;;;;;0.30;0.30;;;;;;;6.38;100.00;101435.28;5115859;28;20110;-60
2023/12/27 09:26:23;;;;;;;0.30;0.30;;;;;;;6.38;100.00;101421.63;5115053;28;20055;-60
2023/12/27 09:28:48;;;;;;;0.30;0.30;;;;;;;6.38;100.00;101427.59;5115897;28;20063;-60
2023/12/27 09:31:13;;;;;;;0.30;0.30;;;;;;;6.40;100.00;101440.47;5115102;28;20463;-60
2023/12/27 09:33:42;;;;;;;0.30;0.30;;;;;;;6.41;100.00;101432.00;5115057;28;20024;-60
2023/12/27 09:36:08;;;;;;;0.30;0.30;;;;;;;6.41;100.00;101439.69;5115554;28;20113;-60
2023/12/27 09:38:33;;;;;;;0.30;0.30;;;;;;;6.41;100.00;101422.63;5114849;28;20066;-60
2023/12/27 09:40:58;;;;;;;0.30;0.30;;;;;;;6.42;100.00;101420.97;5115665;28;20031;-59
2023/12/27 09:43:25;;;;;;;0.40;0.40;;;;;;;6.44;100.00;101421.94;5114938;28;20114;-59
2023/12/27 09:45:53;;;;;;;0.40;0.40;;;;;;;6.46;100.00;101412.66;5114910;28;20099;-60
2023/12/27 09:48:19;;;;;;;0.30;0.30;;;;;;;6.47;100.00;101409.31;5114997;28;20047;-59
2023/12/27 09:50:47;;;;;;;0.30;0.30;;;;;;;6.49;100.00;101405.13;5115038;28;20551;-59
2023/12/27 09:53:14;;;;;;;0.30;0.30;;;;;;;6.50;100.00;101412.03;5114452;28;20348;-60
2023/12/27 09:55:39;;;;;;;0.30;0.30;;;;;;;6.54;100.00;101403.72;5115204;28;20073;-60
2023/12/27 09:58:05;;;;;;;0.30;0.30;;;;;;;6.55;100.00;101405.47;5115063;28;20032;-60
2023/12/27 10:00:32;;;;;;;0.30;0.30;;;;;;;6.56;100.00;101406.38;5114382;28;20428;-60
2023/12/27 10:02:59;;;;;;;0.35;0.35;;;;;;;6.58;100.00;101410.78;5115080;28;20031;-60
2023/12/27 10:05:38;;;;;;;0.20;0.20;;;;;;;6.63;100.00;101410.16;5114509;28;20474;-61
2023/12/27 10:08:04;;;;;;;0.30;0.30;;;;;;;6.65;100.00;101416.22;5114381;28;20055;-60
2023/12/27 10:10:32;;;;;;;0.30;0.30;;;;;;;6.68;100.00;101413.84;5114862;28;20059;-61
2023/12/27 10:13:02;;;;;;;0.22;0.22;;;;;;;6.70;100.00;101408.00;5114779;28;20050;-61
2023/12/27 10:15:28;;;;;;;0.30;0.30;;;;;;;6.71;100.00;101393.50;5113947;28;20022;-60
2023/12/27 10:17:53;;;;;;;0.30;0.30;;;;;;;6.74;100.00;101388.56;5114991;28;20039;-60
2023/12/27 10:20:38;;;;;;;0.30;0.30;;;;;;;6.79;100.00;101399.94;5114202;28;20031;-61
2023/12/27 10:23:04;;;;;;;0.30;0.30;;;;;;;6.81;100.00;101408.59;5114946;28;20024;-61
2023/12/27 10:25:29;;;;;;;0.30;0.30;;;;;;;6.85;100.00;101400.25;5114212;28;20027;-61
2023/12/27 10:27:55;;;;;;;0.30;0.30;;;;;;;6.88;100.00;101392.75;5114036;28;20440;-61
2023/12/27 10:30:21;;;;;;;0.30;0.30;;;;;;;6.91;100.00;101376.66;5114505;28;20105;-61
2023/12/27 10:32:59;;;;;;;0.32;0.32;;;;;;;6.97;100.00;101373.53;5114419;28;20027;-61
2023/12/27 10:35:26;;;;;;;0.30;0.30;;;;;;;7.00;100.00;101366.88;5113724;28;20042;-61
2023/12/27 10:38:04;;;;;;;0.30;0.30;;;;;;;7.07;100.00;101370.66;5114342;28;20030;-61
2023/12/27 10:40:30;;;;;;;0.25;0.25;;;;;;;7.10;100.00;101363.09;5113713;28;20152;-61
2023/12/27 10:42:55;;;;;;;0.30;0.30;;;;;;;7.18;100.00;101363.50;5113768;28;20469;-61
2023/12/27 10:45:21;;;;;;;0.30;0.30;;;;;;;7.24;100.00;101356.13;5114146;28;20028;-59
2023/12/27 10:47:49;;;;;;;0.30;0.30;;;;;;;7.31;100.00;101334.25;5113738;28;20395;-59
2023/12/27 10:50:19;;;;;;;0.30;0.30;;;;;;;7.38;100.00;101351.72;5113380;28;20059;-59
2023/12/27 10:52:51;;;;;;;0.30;0.30;;;;;;;7.44;100.00;101354.59;5114075;28;20028;-59
2023/12/27 10:55:19;;;;;;;0.38;0.38;;;;;;;7.51;100.00;101348.94;5113754;28;20024;-58
2023/12/27 10:57:52;;;;;;;0.30;0.30;;;;;;;7.57;100.00;101341.56;5113572;28;20028;-59
2023/12/27 11:00:19;;;;;;;0.30;0.30;;;;;;;7.62;100.00;101330.66;5113514;28;20107;-59
2023/12/27 11:02:46;;;;;;;0.30;0.30;;;;;;;7.66;100.00;101332.59;5113432;28;20023;-59
2023/12/27 11:05:11;;;;;;;0.22;0.22;;;;;;;7.71;100.00;101331.13;5113735;28;20035;-59
2023/12/27 11:07:40;;;;;;;0.30;0.30;;;;;;;7.75;100.00;101327.91;5113162;28;20026;-59
2023/12/27 11:10:07;;;;;;;0.30;0.30;;;;;;;7.78;100.00;101316.91;5113157;28;20024;-59
2023/12/27 11:12:34;;;;;;;0.20;0.20;;;;;;;7.82;100.00;101313.69;5113709;28;20024;-59
2023/12/27 11:15:03;;;;;;;0.30;0.30;;;;;;;7.85;100.00;101304.44;5113420;28;20046;-59
2023/12/27 11:17:34;;;;;;;0.32;0.32;;;;;;;7.86;100.00;101315.56;5112265;28;20066;-59